Time;durP1;ratioP1;P1;durP2;ratioP2;P2;SDS_P1;SDS_P2;PMS_P1;PMS_P2;Temp;Humidity;BMP_temperature;BMP_pressure;BME280_temperature;BME280_humidity;BME280_pressure;Samples;Min_cycle;Max_cycle;Signal;HPM_P1;HPM_P2
2021/12/02 00:01:58;;;;;;;7.05;4.05;;;;;;;9.58;100.00;100570.19;4996720;28;20038;-71
2021/12/02 00:04:44;;;;;;;4.63;3.50;;;;;;;9.82;100.00;100577.66;4997323;28;20048;-72
2021/12/02 00:07:30;;;;;;;6.05;3.70;;;;;;;9.64;100.00;100580.53;4996020;28;20022;-72
2021/12/02 00:10:16;;;;;;;5.80;3.60;;;;;;;9.60;100.00;100577.13;4996597;28;20018;-71
2021/12/02 00:13:02;;;;;;;5.32;3.55;;;;;;;9.79;99.32;100577.69;4995671;28;20045;-72
2021/12/02 00:15:55;;;;;;;5.30;3.67;;;;;;;9.36;100.00;100576.63;4995386;28;20037;-71
2021/12/02 00:21:31;;;;;;;4.50;3.45;;;;;;;9.31;100.00;100563.63;4996660;28;20022;-72
2021/12/02 00:24:22;;;;;;;5.15;3.08;;;;;;;9.63;99.06;100570.97;4995069;28;20086;-72
2021/12/02 00:27:11;;;;;;;4.75;2.90;;;;;;;9.33;100.00;100566.22;4996870;28;20026;-72
2021/12/02 00:29:58;;;;;;;4.22;2.88;;;;;;;9.33;100.00;100571.47;4996224;28;20038;-71
2021/12/02 00:32:44;;;;;;;5.25;2.80;;;;;;;9.68;99.62;100577.88;4995664;28;20089;-71
2021/12/02 00:35:30;;;;;;;3.47;2.78;;;;;;;9.58;100.00;100583.28;4994777;28;20050;-71
2021/12/02 00:38:18;;;;;;;5.13;3.10;;;;;;;9.60;97.88;100598.03;4995606;28;20065;-71
2021/12/02 00:41:04;;;;;;;7.10;3.20;;;;;;;9.20;100.00;100596.03;4995191;28;20105;-71
2021/12/02 00:43:52;;;;;;;4.45;3.22;;;;;;;9.24;100.00;100589.88;4995405;28;20022;-71
2021/12/02 00:46:39;;;;;;;3.53;3.05;;;;;;;9.25;100.00;100591.63;4995182;28;20087;-71
2021/12/02 00:49:24;;;;;;;6.53;3.47;;;;;;;9.48;100.00;100590.38;4995533;28;20022;-72
2021/12/02 00:52:11;;;;;;;5.65;3.13;;;;;;;9.48;100.00;100586.91;4995328;28;20103;-73
2021/12/02 00:54:57;;;;;;;4.88;3.00;;;;;;;9.28;100.00;100591.56;4995170;28;20433;-71
2021/12/02 00:57:44;;;;;;;4.38;2.72;;;;;;;9.65;100.00;100592.75;4996148;28;20357;-71
2021/12/02 01:00:31;;;;;;;3.78;2.90;;;;;;;9.73;100.00;100606.59;4994816;28;20089;-73
2021/12/02 01:03:18;;;;;;;6.15;3.50;;;;;;;9.66;100.00;100603.16;4995693;28;20041;-71
2021/12/02 01:06:06;;;;;;;5.85;3.67;;;;;;;9.21;100.00;100603.84;4994816;28;20040;-71
2021/12/02 01:08:53;;;;;;;5.60;3.95;;;;;;;8.98;100.00;100603.31;4995535;28;20096;-71
2021/12/02 01:11:40;;;;;;;9.60;3.97;;;;;;;9.08;100.00;100601.41;4995500;28;20040;-72
2021/12/02 01:14:25;;;;;;;9.82;4.10;;;;;;;8.93;100.00;100599.88;4994786;28;20032;-71
2021/12/02 01:17:12;;;;;;;6.63;3.63;;;;;;;8.49;100.00;100603.91;4995412;28;20030;-71
2021/12/02 01:19:58;;;;;;;5.40;3.85;;;;;;;8.39;100.00;100599.66;4995681;28;20022;-72
2021/12/02 01:22:44;;;;;;;7.00;4.13;;;;;;;8.52;100.00;100588.22;4995561;28;20065;-70
2021/12/02 01:25:31;;;;;;;6.82;3.72;;;;;;;8.90;100.00;100588.59;4995159;28;20040;-71
2021/12/02 01:28:17;;;;;;;5.82;3.58;;;;;;;8.79;100.00;100593.09;4993756;28;20444;-71
2021/12/02 01:31:03;;;;;;;6.68;4.07;;;;;;;8.73;100.00;100574.91;4994854;28;20451;-71
2021/12/02 01:33:50;;;;;;;5.97;4.00;;;;;;;9.01;100.00;100576.28;4995608;28;20030;-71
2021/12/02 01:36:39;;;;;;;5.95;3.95;;;;;;;8.85;100.00;100583.44;4994002;28;20112;-72
2021/12/02 01:39:25;;;;;;;7.85;4.32;;;;;;;8.73;100.00;100578.34;4995699;28;20019;-71
2021/12/02 01:42:23;;;;;;;6.20;4.13;;;;;;;8.71;100.00;100576.66;4995070;28;20041;-72
2021/12/02 01:45:15;;;;;;;6.75;4.60;;;;;;;8.82;100.00;100574.78;4993765;28;20038;-72
2021/12/02 01:48:02;;;;;;;7.60;4.80;;;;;;;8.46;100.00;100573.47;4994387;28;20467;-71
2021/12/02 01:51:03;;;;;;;7.43;4.82;;;;;;;8.66;100.00;100579.34;4994568;28;20034;-71
2021/12/02 01:53:51;;;;;;;6.88;4.53;;;;;;;8.71;100.00;100574.91;4993521;28;20033;-70
2021/12/02 01:57:05;;;;;;;6.38;4.43;;;;;;;8.52;100.00;100562.09;4994259;28;20026;-71
2021/12/02 02:00:01;;;;;;;6.85;4.70;;;;;;;8.08;100.00;100554.69;4995237;28;20040;-71
2021/12/02 02:02:48;;;;;;;13.07;5.97;;;;;;;8.17;100.00;100564.19;4994110;28;20037;-71
2021/12/02 02:05:34;;;;;;;8.88;5.53;;;;;;;7.85;100.00;100554.06;4994970;28;20473;-71
2021/12/02 02:08:21;;;;;;;9.15;6.45;;;;;;;7.67;100.00;100549.00;4994098;28;20030;-72
2021/12/02 02:11:08;;;;;;;11.15;6.85;;;;;;;7.52;100.00;100545.66;4994465;28;20113;-71
2021/12/02 02:13:56;;;;;;;14.23;6.35;;;;;;;7.74;100.00;100531.56;4995168;28;20031;-72
2021/12/02 02:16:42;;;;;;;12.23;5.97;;;;;;;7.97;100.00;100535.72;4994690;28;20030;-71
2021/12/02 02:19:30;;;;;;;12.60;6.55;;;;;;;7.79;100.00;100532.38;4994031;28;20029;-72
2021/12/02 02:22:21;;;;;;;11.68;6.35;;;;;;;8.09;100.00;100525.16;4995189;28;20022;-71
2021/12/02 02:25:13;;;;;;;16.85;7.68;;;;;;;7.35;100.00;100537.97;4993761;28;20030;-71
2021/12/02 02:27:59;;;;;;;14.05;7.10;;;;;;;7.22;100.00;100551.97;4994338;28;20030;-71
2021/12/02 02:30:45;;;;;;;8.45;6.05;;;;;;;7.13;100.00;100557.25;4993121;28;20028;-71
2021/12/02 02:33:36;;;;;;;10.70;5.72;;;;;;;7.07;100.00;100575.50;4994655;28;20458;-71
2021/12/02 02:36:27;;;;;;;8.93;5.28;;;;;;;6.85;100.00;100570.41;4993604;28;20062;-71
2021/12/02 02:39:13;;;;;;;8.93;5.68;;;;;;;7.15;100.00;100565.06;4994527;28;20030;-72
2021/12/02 02:42:00;;;;;;;10.25;5.82;;;;;;;6.96;100.00;100577.31;4994028;28;20037;-72
2021/12/02 02:44:46;;;;;;;11.00;6.45;;;;;;;7.02;100.00;100565.97;4994518;28;20378;-71
2021/12/02 02:47:32;;;;;;;13.60;6.60;;;;;;;6.54;100.00;100584.41;4993782;28;20030;-71
2021/12/02 02:50:18;;;;;;;10.57;6.55;;;;;;;6.55;100.00;100588.78;4994366;28;20510;-71
2021/12/02 02:53:26;;;;;;;8.68;5.68;;;;;;;6.18;100.00;100592.34;4993684;28;20041;-71
2021/12/02 02:56:17;;;;;;;8.55;5.82;;;;;;;6.14;100.00;100593.22;4994820;28;20037;-71
2021/12/02 03:05:08;;;;;;;10.60;7.15;;;;;;;5.91;100.00;100588.03;4997737;28;20490;-71
2021/12/02 03:07:58;;;;;;;10.02;6.50;;;;;;;6.26;100.00;100590.59;4998343;28;20034;-71
2021/12/02 03:10:49;;;;;;;11.45;6.43;;;;;;;6.47;100.00;100587.94;4998142;28;20041;-71
2021/12/02 03:13:54;;;;;;;11.18;6.20;;;;;;;6.36;100.00;100576.69;4997504;28;20030;-72
2021/12/02 03:16:44;;;;;;;9.63;6.35;;;;;;;6.36;100.00;100564.56;4997322;28;20022;-72
2021/12/02 03:19:30;;;;;;;10.30;6.32;;;;;;;6.45;100.00;100555.84;4996850;28;20026;-71
2021/12/02 03:22:16;;;;;;;10.18;5.90;;;;;;;6.29;100.00;100557.63;4997303;28;20443;-71
2021/12/02 03:25:04;;;;;;;12.10;7.25;;;;;;;6.33;100.00;100542.88;4997669;28;20040;-71
2021/12/02 03:27:51;;;;;;;10.60;6.93;;;;;;;6.45;100.00;100542.81;4996763;28;20037;-72
2021/12/02 03:30:37;;;;;;;9.48;6.45;;;;;;;6.82;100.00;100552.19;4996758;28;20034;-71
2021/12/02 03:33:23;;;;;;;11.80;7.47;;;;;;;6.93;100.00;100553.00;4996183;28;20034;-71
2021/12/02 03:36:10;;;;;;;11.13;6.70;;;;;;;6.96;100.00;100555.59;4996271;28;20112;-71
2021/12/02 03:38:56;;;;;;;9.32;6.70;;;;;;;6.89;100.00;100561.72;4997125;28;20486;-71
2021/12/02 03:41:42;;;;;;;10.30;6.55;;;;;;;6.75;100.00;100560.94;4996408;28;20096;-71
2021/12/02 03:44:27;;;;;;;9.90;6.38;;;;;;;6.75;100.00;100559.19;4996286;28;20034;-72
2021/12/02 03:47:13;;;;;;;10.50;7.00;;;;;;;6.79;100.00;100566.09;4996275;28;20097;-72
2021/12/02 03:49:59;;;;;;;8.93;6.00;;;;;;;6.83;100.00;100566.97;4996998;28;20039;-72
2021/12/02 03:52:45;;;;;;;9.05;6.07;;;;;;;6.93;100.00;100572.13;4996703;28;20108;-70
2021/12/02 03:55:30;;;;;;;11.10;6.20;;;;;;;6.79;100.00;100568.69;4996184;28;20106;-71
2021/12/02 03:58:16;;;;;;;14.82;6.75;;;;;;;6.30;100.00;100579.31;4996623;28;20026;-72
2021/12/02 04:01:05;;;;;;;11.82;8.05;;;;;;;6.02;100.00;100578.47;4996043;28;20030;-70
2021/12/02 04:03:51;;;;;;;19.15;9.40;;;;;;;6.59;100.00;100561.88;4995533;28;20132;-72
2021/12/02 04:06:37;;;;;;;16.52;9.85;;;;;;;6.18;100.00;100571.53;4996409;28;20041;-71
2021/12/02 04:09:25;;;;;;;18.35;10.52;;;;;;;6.18;100.00;100575.00;4996223;28;20030;-71
2021/12/02 04:12:23;;;;;;;15.18;10.50;;;;;;;6.37;100.00;100570.59;4995040;28;20030;-72
2021/12/02 04:15:13;;;;;;;13.95;9.18;;;;;;;6.29;100.00;100564.56;4995578;28;20123;-71
2021/12/02 04:17:59;;;;;;;20.40;10.27;;;;;;;6.67;100.00;100553.13;4996298;28;20451;-71
2021/12/02 04:20:45;;;;;;;25.13;12.05;;;;;;;6.38;100.00;100548.94;4995749;28;20027;-71
2021/12/02 04:23:30;;;;;;;19.98;12.07;;;;;;;6.72;100.00;100548.81;4995773;28;20030;-72
2021/12/02 04:26:16;;;;;;;19.17;12.30;;;;;;;6.65;100.00;100539.28;4995784;28;20022;-71
2021/12/02 04:29:02;;;;;;;23.73;12.63;;;;;;;6.76;100.00;100544.44;4995722;28;20057;-71
2021/12/02 04:31:48;;;;;;;21.48;12.00;;;;;;;7.01;100.00;100548.63;4995405;28;20491;-72
2021/12/02 04:34:34;;;;;;;25.10;12.25;;;;;;;6.98;100.00;100540.81;4995608;28;20058;-71
2021/12/02 04:37:19;;;;;;;23.20;14.07;;;;;;;6.66;100.00;100555.75;4995434;28;20030;-71
2021/12/02 04:40:06;;;;;;;22.83;13.00;;;;;;;6.69;100.00;100548.81;4995218;28;20444;-71
2021/12/02 04:42:53;;;;;;;28.75;16.83;;;;;;;6.37;100.00;100557.59;4994652;28;20436;-71
2021/12/02 04:45:39;;;;;;;28.88;17.25;;;;;;;6.40;100.00;100547.19;4994338;28;20026;-71
2021/12/02 04:48:25;;;;;;;25.83;14.30;;;;;;;6.33;100.00;100548.06;4994936;28;20029;-71
2021/12/02 04:51:12;;;;;;;16.35;11.32;;;;;;;6.22;100.00;100549.84;4995615;28;20320;-71
2021/12/02 04:53:57;;;;;;;21.10;12.65;;;;;;;6.05;100.00;100547.28;4994395;28;20022;-71
2021/12/02 04:56:43;;;;;;;26.30;15.23;;;;;;;6.48;100.00;100546.31;4995105;28;20128;-71
2021/12/02 04:59:29;;;;;;;29.73;15.23;;;;;;;6.23;100.00;100552.44;4994400;28;20030;-72
2021/12/02 05:02:15;;;;;;;28.08;14.57;;;;;;;6.39;100.00;100551.50;4995481;28;20026;-72
2021/12/02 05:05:00;;;;;;;26.65;14.30;;;;;;;6.67;100.00;100539.28;4980543;28;20251;-71
2021/12/02 05:07:48;;;;;;;25.70;15.07;;;;;;;6.73;100.00;100529.69;4994770;28;20034;-72
2021/12/02 05:10:34;;;;;;;32.65;17.52;;;;;;;6.73;100.00;100527.09;4994476;28;20030;-72
2021/12/02 05:13:20;;;;;;;37.28;19.75;;;;;;;6.74;100.00;100517.53;4994976;28;20077;-71
2021/12/02 05:16:06;;;;;;;34.47;19.60;;;;;;;6.74;100.00;100513.19;4993856;28;20026;-71
2021/12/02 05:18:51;;;;;;;40.25;21.48;;;;;;;6.40;100.00;100513.38;4995173;28;20022;-71
2021/12/02 05:21:37;;;;;;;33.15;19.73;;;;;;;6.87;100.00;100503.59;4994466;28;20034;-72
2021/12/02 05:24:23;;;;;;;33.47;19.98;;;;;;;6.74;100.00;100521.00;4993342;28;20030;-72
2021/12/02 05:27:11;;;;;;;31.45;17.85;;;;;;;6.66;100.00;100528.00;4994765;28;20347;-71
2021/12/02 05:29:57;;;;;;;36.15;18.95;;;;;;;6.78;100.00;100524.44;4996018;28;20094;-71
2021/12/02 05:32:43;;;;;;;34.35;19.55;;;;;;;6.83;100.00;100517.50;4994062;28;20112;-71
2021/12/02 05:35:29;;;;;;;38.78;17.00;;;;;;;6.73;100.00;100524.50;4993638;28;20041;-71
2021/12/02 05:38:14;;;;;;;34.08;17.08;;;;;;;6.78;100.00;100517.50;4993927;28;20030;-72
2021/12/02 05:41:00;;;;;;;36.30;17.15;;;;;;;6.86;100.00;100510.53;5006981;28;20430;-72
2021/12/02 05:43:46;;;;;;;27.33;14.70;;;;;;;7.06;100.00;100513.88;4994057;28;20030;-71
2021/12/02 05:46:33;;;;;;;26.80;12.90;;;;;;;6.96;100.00;100507.00;4993054;28;20116;-71
2021/12/02 05:49:18;;;;;;;30.17;14.43;;;;;;;6.97;100.00;100503.53;4993398;28;20301;-71
2021/12/02 05:52:04;;;;;;;24.90;11.68;;;;;;;7.07;100.00;100499.13;4993701;28;20116;-71
2021/12/02 05:54:51;;;;;;;17.73;9.30;;;;;;;7.22;100.00;100502.47;4993637;28;20030;-71
2021/12/02 05:57:36;;;;;;;17.23;8.60;;;;;;;7.42;100.00;100497.09;4995506;28;20041;-72
2021/12/02 06:00:22;;;;;;;18.42;8.52;;;;;;;7.36;100.00;100499.75;4994763;28;20478;-72
2021/12/02 06:03:08;;;;;;;18.27;7.63;;;;;;;7.16;100.00;100491.22;4995370;28;20023;-71
2021/12/02 06:05:54;;;;;;;20.85;7.90;;;;;;;7.36;100.00;100489.34;4994858;28;20053;-72
2021/12/02 06:08:40;;;;;;;23.30;6.90;;;;;;;7.39;100.00;100492.78;4992635;28;20034;-71
2021/12/02 06:11:25;;;;;;;18.05;7.57;;;;;;;7.78;100.00;100496.75;4995139;28;20023;-71
2021/12/02 06:14:13;;;;;;;21.30;8.30;;;;;;;7.62;100.00;100501.25;4992644;28;20435;-71
2021/12/02 06:16:59;;;;;;;17.95;7.05;;;;;;;7.73;100.00;100498.56;5007419;28;20030;-71
2021/12/02 06:19:44;;;;;;;13.68;6.43;;;;;;;7.99;100.00;100501.75;4994276;28;20026;-72
2021/12/02 06:22:30;;;;;;;11.10;6.38;;;;;;;7.56;100.00;100503.91;4994080;28;20026;-72
2021/12/02 06:26:02;;;;;;;8.27;5.97;;;;;;;7.97;100.00;100503.53;4994010;28;20023;-72
2021/12/02 06:28:23;;;;;;;12.25;5.65;;;;;;;8.03;100.00;100508.66;4992110;28;20042;-72
2021/12/02 06:31:08;;;;;;;14.57;5.50;;;;;;;7.88;100.00;100506.25;4994805;28;20193;-71
2021/12/02 06:33:54;;;;;;;10.05;5.43;;;;;;;8.11;100.00;100518.16;4997376;28;20061;-71
2021/12/02 06:36:40;;;;;;;11.15;6.63;;;;;;;7.97;100.00;100516.56;4997528;28;20474;-72
2021/12/02 06:39:26;;;;;;;13.73;7.65;;;;;;;8.44;100.00;100509.13;5001000;28;20026;-72
2021/12/02 06:42:11;;;;;;;18.70;9.27;;;;;;;8.63;100.00;100507.97;4996651;28;20042;-71
2021/12/02 06:44:57;;;;;;;18.95;9.85;;;;;;;8.43;100.00;100517.81;4998104;28;20026;-72
2021/12/02 06:47:43;;;;;;;18.42;9.55;;;;;;;8.31;100.00;100510.13;4997488;28;20034;-71
2021/12/02 06:50:30;;;;;;;23.58;9.70;;;;;;;8.07;100.00;100528.63;4997863;28;20137;-71
2021/12/02 06:53:17;;;;;;;16.15;9.30;;;;;;;8.68;100.00;100525.31;4997617;28;20045;-72
2021/12/02 06:56:03;;;;;;;17.17;9.38;;;;;;;8.88;100.00;100520.69;4997127;28;20030;-71
2021/12/02 06:58:49;;;;;;;23.75;10.38;;;;;;;9.01;100.00;100526.63;4997286;28;20100;-72
2021/12/02 07:01:35;;;;;;;16.90;8.65;;;;;;;8.83;100.00;100529.47;4996833;28;20461;-72
2021/12/02 07:04:21;;;;;;;13.73;8.60;;;;;;;8.71;100.00;100535.75;4997142;28;20077;-71
2021/12/02 07:07:07;;;;;;;17.23;9.82;;;;;;;9.01;100.00;100537.09;4996853;28;20439;-71
2021/12/02 07:09:53;;;;;;;17.98;9.38;;;;;;;9.33;100.00;100533.09;4997597;28;20037;-71
2021/12/02 07:12:42;;;;;;;14.85;9.20;;;;;;;9.64;100.00;100531.72;4997046;28;20034;-72
2021/12/02 07:15:34;;;;;;;19.08;9.57;;;;;;;9.20;100.00;100542.00;4996445;28;20030;-71
2021/12/02 07:18:20;;;;;;;19.27;11.00;;;;;;;9.01;100.00;100542.31;4996667;28;20037;-71
2021/12/02 07:21:06;;;;;;;24.95;12.52;;;;;;;9.46;100.00;100542.50;4996278;28;20022;-71
2021/12/02 07:23:52;;;;;;;23.38;12.68;;;;;;;8.82;100.00;100539.09;4997018;28;20447;-71
2021/12/02 07:26:41;;;;;;;22.42;12.95;;;;;;;9.10;100.00;100535.19;4996333;28;20140;-72
2021/12/02 07:29:27;;;;;;;24.58;13.55;;;;;;;10.31;100.00;100525.28;4997015;28;20033;-71
2021/12/02 07:32:14;;;;;;;26.90;13.77;;;;;;;10.07;100.00;100529.25;4997127;28;20521;-71
2021/12/02 07:35:02;;;;;;;22.23;13.25;;;;;;;10.86;98.24;100521.53;4996200;28;20125;-72
2021/12/02 07:37:54;;;;;;;24.73;12.57;;;;;;;11.06;96.58;100526.31;4996674;28;20343;-71
2021/12/02 07:40:41;;;;;;;19.70;10.18;;;;;;;11.36;89.53;100520.34;4996132;28;20041;-72
2021/12/02 07:43:27;;;;;;;18.17;9.80;;;;;;;11.29;92.22;100516.19;4994971;28;20029;-71
2021/12/02 07:46:13;;;;;;;25.67;12.85;;;;;;;10.84;100.00;100512.81;4997323;28;20041;-72
2021/12/02 07:48:59;;;;;;;19.35;10.07;;;;;;;10.99;96.70;100519.47;4995863;28;20030;-73
2021/12/02 07:51:49;;;;;;;22.52;10.95;;;;;;;12.32;89.85;100512.63;4996833;28;20030;-71
2021/12/02 07:54:38;;;;;;;19.60;10.45;;;;;;;12.46;85.11;100529.72;4995632;28;20027;-72
2021/12/02 07:57:24;;;;;;;18.05;10.45;;;;;;;13.16;81.53;100532.06;4995988;28;20117;-72
2021/12/02 08:00:13;;;;;;;21.15;12.57;;;;;;;13.08;79.65;100527.91;4995461;28;20040;-72
2021/12/02 08:02:59;;;;;;;28.13;16.30;;;;;;;13.42;78.68;100520.72;4996573;28;20435;-71
2021/12/02 08:05:45;;;;;;;27.77;15.23;;;;;;;13.08;77.73;100520.91;4996136;28;20026;-72
2021/12/02 08:08:31;;;;;;;21.20;12.00;;;;;;;11.78;86.92;100516.72;4995965;28;20033;-72
2021/12/02 08:11:17;;;;;;;28.48;14.80;;;;;;;12.07;87.23;100509.81;4995418;28;20026;-72
2021/12/02 08:14:07;;;;;;;27.58;14.60;;;;;;;12.72;85.31;100511.47;4995693;28;20097;-72
2021/12/02 08:16:53;;;;;;;21.67;13.27;;;;;;;12.30;83.39;100512.66;4995835;28;20030;-72
2021/12/02 08:19:39;;;;;;;23.00;12.68;;;;;;;13.28;79.69;100517.66;4995854;28;20036;-72
2021/12/02 08:22:25;;;;;;;24.80;11.90;;;;;;;13.54;75.60;100521.16;4995727;28;20033;-72
2021/12/02 08:25:12;;;;;;;21.65;9.70;;;;;;;12.51;78.19;100511.22;4994206;28;20026;-72
2021/12/02 08:28:00;;;;;;;14.27;8.50;;;;;;;12.88;77.26;100520.63;4995255;28;20026;-72
2021/12/02 08:30:45;;;;;;;15.55;8.57;;;;;;;13.30;74.58;100524.56;4996121;28;20037;-72
2021/12/02 08:33:31;;;;;;;12.00;8.23;;;;;;;13.27;76.75;100524.66;4996681;28;20022;-74
2021/12/02 08:36:20;;;;;;;17.60;8.05;;;;;;;13.98;71.72;100528.44;4995689;28;20054;-72
2021/12/02 08:39:07;;;;;;;12.90;7.07;;;;;;;14.34;69.20;100527.19;4995033;28;20023;-72
2021/12/02 08:41:55;;;;;;;14.73;8.25;;;;;;;14.01;70.10;100533.63;4995285;28;20104;-72
2021/12/02 08:44:41;;;;;;;13.82;8.35;;;;;;;13.66;71.83;100523.38;4995162;28;20049;-72
2021/12/02 08:47:28;;;;;;;15.05;8.23;;;;;;;14.12;69.64;100525.34;4995432;28;20053;-72
2021/12/02 08:50:20;;;;;;;14.18;6.60;;;;;;;12.96;73.60;100523.00;4996580;28;20037;-72
2021/12/02 08:53:07;;;;;;;16.08;7.93;;;;;;;13.22;75.69;100512.59;4994759;28;20121;-71
2021/12/02 08:55:53;;;;;;;14.45;8.00;;;;;;;14.58;70.51;100509.59;4993897;28;20117;-71
2021/12/02 08:58:39;;;;;;;13.73;8.68;;;;;;;16.18;66.16;100511.88;4993079;28;20113;-72
2021/12/02 09:01:27;;;;;;;16.27;7.55;;;;;;;16.18;62.01;100498.69;4994859;28;20031;-72
2021/12/02 09:04:13;;;;;;;10.38;7.38;;;;;;;14.39;65.42;100501.50;4995636;28;20482;-71
2021/12/02 09:06:59;;;;;;;11.85;6.65;;;;;;;15.50;64.02;100495.44;4994276;28;20038;-73
2021/12/02 09:09:45;;;;;;;15.32;9.75;;;;;;;15.48;65.34;100484.09;4996025;28;20030;-71
2021/12/02 09:12:31;;;;;;;11.93;7.22;;;;;;;15.26;65.25;100472.69;4994689;28;20030;-72
2021/12/02 09:15:17;;;;;;;15.18;7.05;;;;;;;14.50;67.74;100465.09;4994415;28;20032;-72
2021/12/02 09:18:03;;;;;;;16.58;7.70;;;;;;;14.43;69.95;100468.88;4994603;28;20034;-71
2021/12/02 09:20:49;;;;;;;16.75;8.05;;;;;;;14.73;69.60;100465.09;4995965;28;20026;-72
2021/12/02 09:23:35;;;;;;;14.88;7.70;;;;;;;14.41;69.11;100459.28;4995379;28;20026;-71
2021/12/02 09:26:22;;;;;;;15.18;8.20;;;;;;;14.24;70.09;100464.34;4995173;28;20026;-72
2021/12/02 09:29:07;;;;;;;9.35;5.35;;;;;;;14.21;67.18;100457.41;4995942;28;20022;-72
2021/12/02 09:31:54;;;;;;;10.20;5.65;;;;;;;14.43;66.03;100452.22;4994577;28;20491;-72
2021/12/02 09:34:40;;;;;;;13.07;7.28;;;;;;;14.12;71.87;100454.19;4994671;28;20121;-71
2021/12/02 09:37:25;;;;;;;13.60;6.97;;;;;;;13.71;75.72;100450.38;4994832;28;20030;-72
2021/12/02 09:40:13;;;;;;;13.68;6.57;;;;;;;13.68;77.12;100449.63;4995011;28;20026;-72
2021/12/02 09:42:59;;;;;;;9.07;5.22;;;;;;;13.49;75.47;100449.41;4994951;28;20384;-73
2021/12/02 09:45:45;;;;;;;11.85;5.10;;;;;;;13.89;73.26;100435.72;4995042;28;20034;-72
2021/12/02 09:48:32;;;;;;;9.68;5.40;;;;;;;14.01;71.85;100428.25;4995725;28;20042;-72
2021/12/02 09:51:24;;;;;;;10.38;5.22;;;;;;;14.24;72.53;100423.00;4994598;28;20035;-72
2021/12/02 09:54:16;;;;;;;18.23;7.53;;;;;;;13.99;74.30;100432.69;4994267;28;20022;-72
2021/12/02 09:57:04;;;;;;;16.95;9.23;;;;;;;13.47;79.08;100426.69;4993814;28;20038;-72
2021/12/02 09:59:52;;;;;;;20.88;9.45;;;;;;;14.37;76.20;100416.38;4994929;28;20026;-71
2021/12/02 10:02:41;;;;;;;15.63;8.48;;;;;;;14.72;74.70;100409.75;4994301;28;20033;-71
2021/12/02 10:05:33;;;;;;;26.35;10.30;;;;;;;14.46;75.95;100413.41;4994733;28;20558;-71
2021/12/02 10:08:25;;;;;;;27.05;12.32;;;;;;;15.14;73.65;100405.41;4997122;28;20034;-71
2021/12/02 10:11:15;;;;;;;21.02;10.38;;;;;;;15.44;71.86;100404.19;4997657;28;20022;-71
2021/12/02 10:14:22;;;;;;;21.98;8.93;;;;;;;15.16;71.54;100407.97;4997654;28;20414;-71
2021/12/02 10:23:27;;;;;;;12.38;5.88;;;;;;;16.22;65.57;100394.53;4998973;28;20019;-70
2021/12/02 10:26:18;;;;;;;10.63;6.63;;;;;;;15.70;67.92;100388.06;4997684;28;20038;-71
2021/12/02 10:29:18;;;;;;;10.43;5.90;;;;;;;15.38;68.49;100385.09;4999181;28;20022;-70
2021/12/02 10:32:13;;;;;;;10.65;5.40;;;;;;;15.23;70.31;100373.34;4997776;28;20037;-71
2021/12/02 10:35:02;;;;;;;11.38;7.28;;;;;;;15.12;70.75;100369.44;4997592;28;20499;-70
2021/12/02 10:37:48;;;;;;;17.13;8.85;;;;;;;15.59;69.56;100360.41;4998197;28;20041;-70
2021/12/02 10:40:36;;;;;;;14.95;5.90;;;;;;;15.41;70.67;100361.19;4997783;28;20125;-71
2021/12/02 10:43:22;;;;;;;9.02;4.70;;;;;;;15.23;70.35;100367.22;4997435;28;20026;-71
2021/12/02 10:46:19;;;;;;;10.05;5.35;;;;;;;15.24;70.04;100364.53;4996970;28;20089;-71
2021/12/02 10:49:13;;;;;;;7.65;4.97;;;;;;;15.50;69.22;100359.00;4997010;28;20026;-70
2021/12/02 10:52:04;;;;;;;7.28;4.70;;;;;;;15.14;70.52;100346.50;4998254;28;20018;-71
2021/12/02 10:54:56;;;;;;;8.10;4.32;;;;;;;15.67;68.58;100342.44;4998301;28;20037;-71
2021/12/02 10:57:48;;;;;;;8.23;4.65;;;;;;;16.24;67.23;100339.81;4998037;28;20116;-71
2021/12/02 11:00:41;;;;;;;10.60;6.30;;;;;;;16.55;66.59;100338.31;4997872;28;20415;-70
2021/12/02 11:03:27;;;;;;;7.95;5.00;;;;;;;16.60;65.55;100330.19;4997257;28;20109;-70
2021/12/02 11:06:42;;;;;;;11.77;5.53;;;;;;;16.25;66.93;100337.09;4997576;28;20113;-69
2021/12/02 11:09:29;;;;;;;10.50;6.30;;;;;;;16.82;65.19;100323.78;4997429;28;20031;-71
2021/12/02 11:12:18;;;;;;;11.68;6.15;;;;;;;17.01;64.02;100318.41;4996589;28;20022;-70
2021/12/02 11:15:10;;;;;;;10.70;5.97;;;;;;;17.27;63.65;100316.16;4997031;28;20462;-72
2021/12/02 11:18:00;;;;;;;10.80;6.88;;;;;;;18.00;61.32;100316.69;4995761;28;20030;-70
2021/12/02 11:20:50;;;;;;;9.60;5.22;;;;;;;16.93;59.50;100312.66;4997392;28;20022;-70
2021/12/02 11:23:46;;;;;;;5.63;3.00;;;;;;;17.10;59.04;100308.22;4996340;28;20022;-71
2021/12/02 11:26:32;;;;;;;10.10;4.07;;;;;;;17.70;58.37;100314.84;4997275;28;20454;-70
2021/12/02 11:29:18;;;;;;;9.38;2.95;;;;;;;17.65;56.72;100314.22;4997634;28;20042;-70
2021/12/02 11:32:03;;;;;;;7.90;3.88;;;;;;;17.08;56.23;100309.25;4997594;28;20499;-70
2021/12/02 11:35:05;;;;;;;10.48;5.70;;;;;;;17.61;57.17;100304.72;4997329;28;20061;-70
2021/12/02 11:38:02;;;;;;;8.05;3.80;;;;;;;17.97;55.67;100310.72;4996277;28;20035;-70
2021/12/02 11:40:51;;;;;;;5.75;3.30;;;;;;;17.29;54.58;100298.44;4996691;28;20033;-70
2021/12/02 11:43:39;;;;;;;7.80;2.90;;;;;;;18.01;53.92;100302.50;4983619;28;20442;-70
2021/12/02 11:46:25;;;;;;;6.22;2.90;;;;;;;17.80;52.89;100297.53;5010107;28;20037;-70
2021/12/02 11:49:11;;;;;;;7.13;3.13;;;;;;;17.59;51.38;100303.94;4996058;28;20038;-71
2021/12/02 11:51:56;;;;;;;6.65;3.25;;;;;;;17.93;50.97;100293.28;4996123;28;20045;-71
2021/12/02 11:54:42;;;;;;;8.63;3.40;;;;;;;18.23;50.01;100295.09;4996748;28;20112;-71
2021/12/02 11:57:32;;;;;;;3.90;2.40;;;;;;;18.03;48.97;100289.16;4995813;28;20030;-70
2021/12/02 12:00:22;;;;;;;3.90;2.05;;;;;;;17.21;49.74;100291.81;4996895;28;20097;-69
2021/12/02 12:03:11;;;;;;;7.72;2.20;;;;;;;17.85;49.34;100282.22;4997712;28;20113;-71
2021/12/02 12:06:02;;;;;;;6.25;2.80;;;;;;;18.27;48.67;100282.50;4996684;28;20053;-70
2021/12/02 12:08:50;;;;;;;4.32;2.65;;;;;;;17.99;48.90;100277.00;4995762;28;20080;-71
2021/12/02 12:11:43;;;;;;;10.40;3.58;;;;;;;17.80;51.52;100274.50;4996059;28;20030;-71
2021/12/02 12:14:38;;;;;;;4.90;2.40;;;;;;;17.96;50.91;100266.56;4995560;28;20081;-71
2021/12/02 12:17:39;;;;;;;8.13;3.72;;;;;;;17.90;51.99;100269.56;4996368;28;20030;-70
2021/12/02 12:21:00;;;;;;;6.65;3.67;;;;;;;17.80;51.67;100252.47;4995254;28;20336;-72
2021/12/02 12:23:58;;;;;;;5.38;3.22;;;;;;;17.88;50.95;100251.09;5008651;28;20018;-70
2021/12/02 12:26:46;;;;;;;4.50;2.40;;;;;;;17.82;50.38;100243.50;4996705;28;20474;-70
2021/12/02 12:29:32;;;;;;;6.70;2.92;;;;;;;17.60;50.41;100245.56;4995562;28;20049;-70
2021/12/02 12:32:31;;;;;;;7.03;3.33;;;;;;;17.62;51.24;100251.66;4996609;28;20285;-71
2021/12/02 12:38:20;;;;;;;5.05;3.60;;;;;;;17.19;51.81;100252.16;4996067;28;20065;-71
2021/12/02 12:41:15;;;;;;;4.28;1.92;;;;;;;16.57;53.78;100246.56;4995711;28;20109;-71
2021/12/02 12:44:00;;;;;;;3.67;2.75;;;;;;;17.33;53.00;100241.69;4996534;28;20359;-70
2021/12/02 12:46:54;;;;;;;6.20;3.40;;;;;;;17.51;52.81;100238.13;4996539;28;20407;-70
2021/12/02 12:49:40;;;;;;;5.32;2.88;;;;;;;17.38;52.99;100237.03;4995386;28;20098;-71
2021/12/02 12:52:26;;;;;;;7.05;2.80;;;;;;;17.48;52.85;100226.84;4982112;28;20386;-74
2021/12/02 12:55:19;;;;;;;8.45;2.95;;;;;;;17.22;53.25;100229.97;4995522;28;20185;-71
2021/12/02 12:58:13;;;;;;;7.45;5.07;;;;;;;16.87;55.91;100229.13;4995508;28;20090;-75
2021/12/02 13:01:05;;;;;;;18.35;6.45;;;;;;;17.25;55.57;100230.69;4994093;28;20455;-71
2021/12/02 13:04:14;;;;;;;6.55;3.63;;;;;;;17.19;55.86;100230.13;4995409;28;20042;-70
2021/12/02 13:07:10;;;;;;;6.65;3.10;;;;;;;16.88;54.47;100230.00;4994565;28;20144;-72
2021/12/02 13:10:15;;;;;;;8.02;3.38;;;;;;;17.10;54.44;100235.91;4994689;28;20168;-71
2021/12/02 13:13:01;;;;;;;6.63;3.55;;;;;;;17.02;55.94;100240.72;4994481;28;20069;-70
2021/12/02 13:15:46;;;;;;;7.32;3.63;;;;;;;16.93;56.75;100241.19;4994771;28;20062;-71